• Join FlightAware (Why Join?)
  • Login
  • US Flag 
08:20PM EDT


 

Airport Tracker/Info


-or-


 

Live Flight TrackerFlight Track Log ✈ UAL1402 ✈ 16-Jul-2013 ✈ KLAX - KIAH

Flight Track Log - Related Links

Times and Time Zones

All times are in EDT time to prevent confusion due to time zone crossing. See the UAL1402 flight status page for this flight to view local times or setup timezone preferences in your user account.

Time Position Orientation Groundspeed Altitude Reporting Facility
EDT Latitude Longitude Course Direction KTS MPH feet Rate Location/Type
08:52PM 33.9333 -118.4333 90° East 175 201 1,600  Level Southern California TRACON
08:53PM 33.9158 -118.4772 244° Southwest 215 247 3,000 2,400 Climbing Los Angeles Center
08:54PM 33.8661 -118.5467 229° Southwest 260 299 5,600 2,460 Climbing Los Angeles Center
08:55PM 33.6934 -118.5293 134° Southeast  Level FlightAware Approximate
08:55PM 33.7975 -118.5481 181° South 280 322 8,100  Level Los Angeles Center
08:56PM 33.6564 -118.3961 121° Southeast  Level FlightAware Approximate
08:56PM 33.7175 -118.5261 167° South 297 342 10,700  Level Los Angeles Center
08:57PM 33.6334 -118.2604 90° East  Level FlightAware Approximate
08:57PM 33.6639 -118.4125 120° Southeast 340 391 13,200  Level Los Angeles Center
08:58PM 33.6428 -118.2975 102° East 370 426 15,300 1,980 Climbing Los Angeles Center
08:59PM 33.6442 -118.1719 89° East 386 444 17,400 1,920 Climbing Los Angeles Center
09:00PM 33.6442 -118.0419 90° East 393 452 19,700 2,220 Climbing Los Angeles Center
09:01PM 33.6444 -117.8553 90° East 402 463 22,600 1,920 Climbing Los Angeles Center
09:02PM 33.6431 -117.7178 91° East 412 474 23,800 780 Climbing Los Angeles Center
09:03PM 33.6433 -117.5669 90° East 450 518 24,300 960 Climbing Los Angeles Center
09:04PM 33.6422 -117.4097 90° East 471 542 25,800 1,200 Climbing Los Angeles Center
09:05PM 33.6408 -117.2503 91° East 479 551 26,800 1,200 Climbing Los Angeles Center
09:06PM 33.6400 -117.0878 90° East 491 565 28,300 1,620 Climbing Los Angeles Center
09:07PM 33.6383 -116.8975 91° East 480 552 30,200 1,440 Climbing Los Angeles Center
09:09PM 33.6317 -116.7547 93° East 479 551 31,300 1,020 Climbing Los Angeles Center
09:10PM 33.6081 -116.6008 100° East 471 542 32,400 1,140 Climbing Los Angeles Center
09:11PM 33.5783 -116.4133 101° East 475 547 33,700 1,500 Climbing Los Angeles Center
09:12PM 33.5561 -116.2608 100° East 467 537 35,600 1,500 Climbing Los Angeles Center
09:13PM 33.5333 -116.1156 101° East 446 513 36,800 600 Climbing Los Angeles Center
09:14PM 33.5108 -115.9692 100° East 445 512 36,900 60 Climbing Los Angeles Center
09:15PM 33.4864 -115.8222 101° East 450 518 37,000  Climbing Los Angeles Center
09:16PM 33.4619 -115.6747 101° East 450 518 37,000 -60 Level Los Angeles Center
09:17PM 33.4383 -115.5278 101° East 449 517 36,900 -60 Descending Los Angeles Center
09:18PM 33.4164 -115.3806 100° East 449 517 36,900  Level Los Angeles Center
09:19PM 33.3878 -115.2053 101° East 449 517 37,000  Climbing Los Angeles Center
09:20PM 33.3594 -115.0319 101° East 444 511 37,000 -60 Level Los Angeles Center
09:21PM 33.3344 -114.8867 102° East 446 513 36,900 -60 Descending Los Angeles Center
09:22PM 33.3094 -114.7411 102° East 447 514 36,900  Level Los Angeles Center
09:23PM 33.2867 -114.5950 101° East 446 513 37,000  Climbing Los Angeles Center
09:24PM 33.2619 -114.4494 101° East 447 514 37,000 -120 Level Los Angeles Center
09:25PM 33.2506 -114.3689 100° East 448 516 36,900  Descending Albuquerque Center
09:26PM 33.2253 -114.2228 102° East 450 518 37,000  Climbing Albuquerque Center
09:27PM 33.2000 -114.0778 102° East 447 514 37,000  Level Albuquerque Center
09:28PM 33.1708 -113.9017 101° East 449 517 37,000 -60 Level Albuquerque Center
09:29PM 33.1458 -113.7564 102° East 448 516 36,900  Descending Albuquerque Center
09:30PM 33.1192 -113.6119 102° East 447 514 37,000  Climbing Albuquerque Center
09:31PM 33.0936 -113.4658 102° East 448 516 37,000  Level Albuquerque Center
09:32PM 33.0678 -113.3186 102° East 451 519 37,000  Level Albuquerque Center
09:33PM 33.0411 -113.1711 102° East 453 521 37,000  Level Albuquerque Center
09:34PM 33.0142 -113.0214 102° East 457 526 37,000 -60 Level Albuquerque Center
09:35PM 32.9867 -112.8717 102° East 459 528 36,900  Descending Albuquerque Center
09:36PM 32.9594 -112.7214 102° East 461 531 37,000  Climbing Albuquerque Center
09:37PM 32.9314 -112.5719 103° East 460 529 36,900 -60 Descending Albuquerque Center
09:38PM 32.9025 -112.4217 103° East 463 533 36,900  Level Albuquerque Center
09:39PM 32.8742 -112.2722 103° East 463 533 37,000  Climbing Albuquerque Center
09:40PM 32.8425 -112.0983 102° East 461 531 37,000  Level Albuquerque Center
09:41PM 32.8142 -111.9500 103° East 462 532 37,000  Level Albuquerque Center
09:42PM 32.7844 -111.7944 103° East 468 539 37,000 180 Level Albuquerque Center
09:43PM 32.7561 -111.6508 103° East 465 535 37,400 480 Climbing Albuquerque Center
09:44PM 32.7283 -111.5022 102° East 464 534 38,100 720 Climbing Albuquerque Center
09:45PM 32.7000 -111.3547 103° East 462 532 38,900 420 Climbing Albuquerque Center
09:46PM 32.6706 -111.2097 104° East 458 527 39,000  Climbing Albuquerque Center
09:47PM 32.6419 -111.0606 103° East 462 532 39,000  Level Albuquerque Center
09:48PM 32.6061 -110.8839 103° East 462 532 39,000  Level Albuquerque Center
09:49PM 32.5756 -110.7375 104° East 461 531 39,000  Level Albuquerque Center
09:50PM 32.5456 -110.5875 103° East 466 536 39,000  Level Albuquerque Center
09:51PM 32.5156 -110.4383 103° East 468 539 39,000  Level Albuquerque Center
09:52PM 32.4839 -110.2853 104° East 470 541 39,000  Level Albuquerque Center
09:53PM 32.4533 -110.1361 104° East 469 540 39,000  Level Albuquerque Center
09:54PM 32.4278 -109.9861 101° East 469 540 39,000  Level Albuquerque Center
09:55PM 32.4061 -109.8367 100° East 466 536 39,000  Level Albuquerque Center
09:56PM 32.3819 -109.6850 101° East 468 539 39,000  Level Albuquerque Center
09:57PM 32.3533 -109.5053 101° East 467 537 39,000  Level Albuquerque Center
09:58PM 32.3314 -109.3553 100° East 465 535 39,000  Level Albuquerque Center
09:59PM 32.3081 -109.2075 101° East 462 532 39,000  Level Albuquerque Center
10:00PM 32.2842 -109.0564 101° East 468 539 39,000  Level Albuquerque Center
10:01PM 32.2600 -108.9061 101° East 469 540 39,000  Level Albuquerque Center
10:02PM 32.2364 -108.7547 100° East 470 541 39,000  Level Albuquerque Center
10:03PM 32.2125 -108.6039 101° East 472 543 39,000 -60 Level Albuquerque Center
10:05PM 32.1864 -108.4425 101° East 476 548 38,900  Descending Albuquerque Center
10:06PM 32.1619 -108.2986 101° East 476 548 39,000  Climbing Albuquerque Center
10:07PM 32.1328 -108.1144 101° East 477 549 39,000  Level Albuquerque Center
10:08PM 32.1106 -107.9836 101° East 478 550 39,000 -60 Level Albuquerque Center
10:09PM 32.0794 -107.8003 101° East 478 550 38,900 -60 Descending Albuquerque Center
10:10PM 32.0542 -107.6469 101° East 479 551 38,900  Level Albuquerque Center
10:11PM 32.0286 -107.4950 101° East 477 549 39,000  Climbing Albuquerque Center
10:12PM 32.0031 -107.3431 101° East 478 550 38,900  Descending Albuquerque Center
10:13PM 31.9769 -107.1908 101° East 479 551 39,000  Climbing Albuquerque Center
10:14PM 31.9517 -107.0389 101° East 477 549 39,000 -60 Level Albuquerque Center
10:15PM 31.9239 -106.8844 102° East 483 556 38,900  Descending Albuquerque Center
10:16PM 31.8969 -106.7314 102° East 483 556 39,000  Climbing Albuquerque Center
10:17PM 31.8625 -106.5464 102° East 489 563 39,000  Level Albuquerque Center
10:18PM 31.8347 -106.3856 101° East 501 577 39,000  Level Albuquerque Center
10:19PM 31.8028 -106.2278 103° East 505 581 39,000  Level Albuquerque Center
10:20PM 31.7636 -106.0700 106° East 501 577 39,000 -60 Level Albuquerque Center
10:21PM 31.7244 -105.9153 107° East 495 570 38,900 -60 Descending Albuquerque Center
10:22PM 31.6856 -105.7606 106° East 495 570 38,900  Level Albuquerque Center
10:23PM 31.6464 -105.6064 107° East 494 568 38,900  Level Albuquerque Center
10:24PM 31.6083 -105.4519 106° East 492 566 39,000  Climbing Albuquerque Center
10:25PM 31.5694 -105.2967 106° East 494 568 39,000  Level Albuquerque Center
10:26PM 31.5294 -105.1431 107° East 491 565 39,000 -60 Level Albuquerque Center
10:27PM 31.4889 -104.9858 107° East 498 573 38,900  Descending Albuquerque Center
10:28PM 31.4494 -104.8289 106° East 499 574 39,000  Climbing Albuquerque Center
10:29PM 31.4008 -104.6400 107° East 502 578 38,900 -60 Descending Albuquerque Center
10:30PM 31.3603 -104.4833 107° East 501 577 38,900  Level Albuquerque Center
10:31PM 31.3189 -104.3286 107° East 500 575 39,000  Climbing Albuquerque Center
10:32PM 31.2783 -104.1728 107° East 500 575 38,900  Descending Albuquerque Center
10:33PM 31.2369 -104.0192 107° East 498 573 39,000  Climbing Albuquerque Center
10:34PM 31.1961 -103.8653 107° East 498 573 39,000 -60 Level Albuquerque Center
10:35PM 31.1511 -103.7083 108° East 495 570 38,900  Descending Albuquerque Center
10:36PM 31.1100 -103.5572 108° East 492 566 39,000  Climbing Albuquerque Center
10:37PM 31.0683 -103.4072 108° East 489 563 39,000 -60 Level Albuquerque Center
10:38PM 31.0264 -103.2558 108° East 494 568 38,900  Descending Albuquerque Center
10:39PM 30.9869 -103.1078 107° East 486 559 39,000  Climbing Albuquerque Center
10:40PM 30.9461 -102.9600 108° East 482 555 38,900  Descending Albuquerque Center
10:41PM 30.8975 -102.7794 107° East 487 560 39,000  Climbing Albuquerque Center
10:42PM 30.8567 -102.6303 108° East 488 562 38,900 -60 Descending Albuquerque Center
10:43PM 30.8161 -102.4844 108° East 483 556 38,900  Level Albuquerque Center
10:44PM 30.7861 -102.3692 107° East 472 543 38,900  Level Houston Center
10:45PM 30.7469 -102.2272 108° East 467 537 39,000  Climbing Houston Center
10:46PM 30.7081 -102.0850 108° East 466 536 39,000  Level Houston Center
10:47PM 30.6683 -101.9422 108° East 467 537 39,000 -60 Level Houston Center
10:48PM 30.6289 -101.8006 108° East 465 535 38,900  Descending Houston Center
10:49PM 30.5906 -101.6600 108° East 461 531 39,000  Climbing Houston Center
10:50PM 30.5464 -101.5056 108° East 458 527 38,900 -60 Descending Houston Center
10:51PM 30.5069 -101.3672 108° East 455 524 38,900  Level Houston Center
10:52PM 30.4686 -101.2297 108° East 451 519 38,900  Level Houston Center
10:53PM 30.4289 -101.0942 109° East 446 513 39,000  Climbing Houston Center
10:54PM 30.3900 -100.9583 108° East 444 511 39,000 -60 Level Houston Center
10:55PM 30.3511 -100.8219 108° East 445 512 38,900  Descending Houston Center
10:56PM 30.3117 -100.6856 108° East 448 516 39,000  Climbing Houston Center
10:57PM 30.2725 -100.5467 108° East 450 518 39,000 -60 Level Houston Center
10:58PM 30.2319 -100.4075 109° East 453 521 38,900  Descending Houston Center
10:59PM 30.1928 -100.2661 108° East 455 524 39,000  Climbing Houston Center
11:00PM 30.1508 -100.1200 108° East 465 535 39,000 -60 Level Houston Center
11:01PM 30.1064 -99.9794 110° East 463 533 38,900  Descending Houston Center
11:02PM 30.0647 -99.8414 109° East 455 524 39,000  Climbing Houston Center
11:03PM 30.0228 -99.7025 109° East 459 528 39,000  Level Houston Center
11:04PM 29.9733 -99.5367 109° East 456 525 39,000  Level Houston Center
11:05PM 29.9322 -99.3997 109° East 453 521 39,000  Level Houston Center
11:06PM 29.8925 -99.2647 109° East 448 516 39,000  Level Houston Center
11:07PM 29.8506 -99.1292 110° East 449 517 39,000  Level Houston Center
11:08PM 29.8067 -98.9856 109° East 451 519 39,000 -180 Level Houston Center
11:09PM 29.7650 -98.8514 110° East 449 517 38,700 -600 Descending Houston Center
11:10PM 29.7228 -98.7153 110° East 451 519 37,800 -960 Descending Houston Center
11:11PM 29.6781 -98.5664 109° East 457 526 36,800 -900 Descending Houston Center
11:12PM 29.6469 -98.4492 107° East 468 539 36,000 -900 Descending Houston Center
11:14PM 29.6481 -98.2658 90° East 475 547 35,000 -540 Descending Houston Center
11:15PM 29.6494 -98.1172 89° East 467 537 35,000  Level Houston Center
11:16PM 29.6508 -97.9694 89° East 463 533 35,000  Level Houston Center
11:17PM 29.6531 -97.8222 89° East 464 534 35,000 -180 Level Houston Center
11:18PM 29.6525 -97.6742 90° East 464 534 34,700 -600 Descending Houston Center
11:19PM 29.6417 -97.5269 95° East 461 531 33,800 -1,380 Descending Houston Center
11:20PM 29.6314 -97.3769 94° East 469 540 31,900 -2,100 Descending Houston Center
11:21PM 29.6214 -97.2308 94° East 458 527 29,600 -2,220 Descending Houston Center
11:22PM 29.6117 -97.0883 94° East 448 516 27,500 -2,160 Descending Houston Center
11:23PM 29.6022 -96.9525 95° East 429 494 25,300 -2,220 Descending Houston Center
11:24PM 29.5931 -96.8186 94° East 418 481 23,100 -2,160 Descending Houston Center
11:25PM 29.5844 -96.6903 94° East 402 463 21,000 -2,040 Descending Houston Center
11:26PM 29.5744 -96.5678 95° East 385 443 19,000 -1,980 Descending Houston Center
11:27PM 29.5669 -96.4494 94° East 373 429 17,000 -2,040 Descending Houston Center
11:28PM 29.5569 -96.3356 96° East 360 414 14,900 -2,220 Descending Houston Center
11:29PM 29.5469 -96.2072 95° East 347 399 12,600 -1,440 Descending Houston Center
11:30PM 29.5761 -96.1081 71° East 340 391 12,100 -300 Descending Houston Center
11:31PM 29.6281 -96.0036 60° Northeast 378 435 12,000 -240 Descending Houston Center
11:32PM 29.6803 -95.8994 60° Northeast 374 430 11,700 -1,020 Descending Houston Center
11:33PM 29.7322 -95.7972 60° Northeast 370 426 10,000 -1,080 Descending Houston Center
11:34PM 29.7761 -95.7078 61° Northeast 283 326 9,600 -720 Descending Houston Center
11:35PM 29.8103 -95.6411 59° Northeast 282 325 8,700 -1,080 Descending Houston Center
11:36PM 29.8511 -95.5592 60° Northeast 279 321 7,600 -1,320 Descending Houston Center
11:37PM 29.8883 -95.4825 61° Northeast 272 313 6,100 -840 Descending Houston Center
11:38PM 29.8956 -95.3997 84° East 256 295 6,000 -60 Descending Houston Center
11:39PM 29.8969 -95.3169 89° East 255 293 6,000  Level Houston Center
11:40PM 29.8967 -95.2444 90° East 233 268 6,000 -360 Level Houston Center
11:41PM 29.8953 -95.1708 91° East 200 230 5,400 -1,020 Descending Houston Center
11:42PM 29.8986 -95.1150 86° East 193 222 4,100 -1,440 Descending Houston Center